createdAt,value
2022-11-27T00:01:22.472Z,55.95
2022-11-27T00:03:49.798Z,45.38
2022-11-27T00:06:19.404Z,52.17
2022-11-27T00:08:46.507Z,48.33
2022-11-27T00:11:19.448Z,46.33
2022-11-27T00:13:46.908Z,51.60
2022-11-27T00:16:14.452Z,52.63
2022-11-27T00:18:41.963Z,54.45
2022-11-27T00:21:11.832Z,55.95
2022-11-27T00:23:39.236Z,54.60
2022-11-27T00:26:07.040Z,56.10
2022-11-27T00:28:34.569Z,58.63
2022-11-27T00:31:05.341Z,58.53
2022-11-27T00:33:32.913Z,62.20
2022-11-27T00:36:07.309Z,59.20
2022-11-27T00:38:38.729Z,68.18
2022-11-27T00:41:18.280Z,69.70
2022-11-27T00:43:46.053Z,80.47
2022-11-27T00:46:15.009Z,77.80
2022-11-27T00:48:42.308Z,69.43
2022-11-27T00:51:13.030Z,69.50
2022-11-27T00:53:40.041Z,73.35
2022-11-27T00:56:07.499Z,71.70
2022-11-27T00:58:34.966Z,74.45
2022-11-27T01:01:05.793Z,67.90
2022-11-27T01:03:33.491Z,70.88
2022-11-27T01:06:07.420Z,67.30
2022-11-27T01:08:34.816Z,72.32
2022-11-27T01:11:02.245Z,68.38
2022-11-27T01:13:33.094Z,80.47
2022-11-27T01:16:03.065Z,68.35
2022-11-27T01:18:30.283Z,66.68
2022-11-27T01:20:57.064Z,65.82
2022-11-27T01:23:24.498Z,67.22
2022-11-27T01:25:53.820Z,65.82
2022-11-27T01:28:22.216Z,71.43
2022-11-27T01:30:49.798Z,59.53
2022-11-27T01:33:17.264Z,63.30
2022-11-27T01:35:43.981Z,58.75
2022-11-27T01:38:10.708Z,62.83
2022-11-27T01:40:37.396Z,61.95
2022-11-27T01:43:04.076Z,56.22
2022-11-27T01:45:30.874Z,58.60
2022-11-27T01:48:01.634Z,51.53
2022-11-27T01:50:35.805Z,56.13
2022-11-27T01:53:11.544Z,61.78
2022-11-27T01:55:42.961Z,57.33
2022-11-27T01:58:20.348Z,56.00
2022-11-27T02:00:47.018Z,58.05
2022-11-27T02:03:13.801Z,54.67
2022-11-27T02:05:40.437Z,54.83
2022-11-27T02:08:10.789Z,53.80
2022-11-27T02:10:46.232Z,56.08
2022-11-27T02:13:21.668Z,51.03
2022-11-27T02:15:56.525Z,46.35
2022-11-27T02:18:42.400Z,49.03
2022-11-27T02:21:39.345Z,60.90
2022-11-27T02:24:09.061Z,64.70
2022-11-27T02:26:52.064Z,53.13
2022-11-27T02:29:23.065Z,54.78
2022-11-27T02:32:08.406Z,55.58
2022-11-27T02:35:10.161Z,54.50
2022-11-27T02:37:48.504Z,59.92
2022-11-27T02:40:30.994Z,53.97
2022-11-27T02:43:18.012Z,56.50
2022-11-27T02:45:48.491Z,57.83
2022-11-27T02:48:20.344Z,53.63
2022-11-27T02:50:49.696Z,56.05
2022-11-27T02:53:22.976Z,57.42
2022-11-27T02:55:51.976Z,55.63
2022-11-27T02:58:22.320Z,58.92
2022-11-27T03:00:50.644Z,55.53
2022-11-27T03:03:22.324Z,54.10
2022-11-27T03:05:52.420Z,50.40
2022-11-27T03:08:39.190Z,53.30
2022-11-27T03:11:09.386Z,54.28
2022-11-27T03:13:57.196Z,57.53
2022-11-27T03:16:50.105Z,59.67
2022-11-27T03:19:26.516Z,63.50
2022-11-27T03:21:56.657Z,60.65
2022-11-27T03:24:24.345Z,58.25
2022-11-27T03:26:51.662Z,60.17
2022-11-27T03:29:23.658Z,60.33
2022-11-27T03:31:50.325Z,61.70
2022-11-27T03:34:17.630Z,54.92
2022-11-27T03:36:45.876Z,62.65
2022-11-27T03:39:12.869Z,55.53
2022-11-27T03:41:57.777Z,54.22
2022-11-27T03:44:40.834Z,61.22
2022-11-27T03:47:35.676Z,58.67
2022-11-27T03:50:02.392Z,52.22
2022-11-27T03:52:35.144Z,42.78
2022-11-27T03:55:12.457Z,47.95
2022-11-27T03:58:00.612Z,48.88
2022-11-27T04:00:32.143Z,55.50
2022-11-27T04:02:58.986Z,48.20
2022-11-27T04:05:26.170Z,57.53
2022-11-27T04:07:52.993Z,58.83
2022-11-27T04:10:19.819Z,62.85
2022-11-27T04:12:47.016Z,57.95
2022-11-27T04:15:13.800Z,58.85
2022-11-27T04:17:40.675Z,56.20
2022-11-27T04:20:08.129Z,56.35
2022-11-27T04:22:34.788Z,54.63
2022-11-27T04:25:01.593Z,55.20
2022-11-27T04:27:28.408Z,49.55
2022-11-27T04:29:55.211Z,54.22
2022-11-27T04:32:22.237Z,56.38
2022-11-27T04:34:48.964Z,52.33
2022-11-27T04:37:15.696Z,52.60
2022-11-27T04:39:42.452Z,47.42
2022-11-27T04:42:09.748Z,55.13
2022-11-27T04:44:36.544Z,55.65
2022-11-27T04:47:03.534Z,53.78
2022-11-27T04:49:30.367Z,51.97
2022-11-27T04:51:56.944Z,59.08
2022-11-27T04:54:23.787Z,53.70
2022-11-27T04:56:50.443Z,59.75
2022-11-27T04:59:17.153Z,58.38
2022-11-27T05:01:43.900Z,56.40
2022-11-27T05:04:10.635Z,53.65
2022-11-27T05:06:37.508Z,61.58
2022-11-27T05:09:04.242Z,58.75
2022-11-27T05:11:32.027Z,52.35
2022-11-27T05:14:19.636Z,64.97
2022-11-27T05:16:58.140Z,62.20
2022-11-27T05:19:28.652Z,65.72
2022-11-27T05:21:55.425Z,66.57
2022-11-27T05:24:24.737Z,66.22
2022-11-27T05:26:52.125Z,67.35
2022-11-27T05:29:18.803Z,59.95
2022-11-27T05:31:46.030Z,62.95
2022-11-27T05:34:13.268Z,67.05
2022-11-27T05:36:40.048Z,66.15
2022-11-27T05:39:08.483Z,60.78
2022-11-27T05:41:37.481Z,66.30
2022-11-27T05:44:05.183Z,58.38
2022-11-27T05:46:32.287Z,64.90
2022-11-27T05:48:59.344Z,64.75
2022-11-27T05:51:26.055Z,67.38
2022-11-27T05:53:52.781Z,67.18
2022-11-27T05:56:19.730Z,66.50
2022-11-27T05:58:48.088Z,66.20
2022-11-27T06:01:17.051Z,61.10
2022-11-27T06:03:43.820Z,66.00
2022-11-27T06:06:14.150Z,67.05
2022-11-27T06:08:41.804Z,66.28
2022-11-27T06:11:11.047Z,61.08
2022-11-27T06:13:38.153Z,65.97
2022-11-27T06:16:11.197Z,68.18
2022-11-27T06:18:38.083Z,67.95
2022-11-27T06:21:09.827Z,55.38
2022-11-27T06:23:36.973Z,62.92
2022-11-27T06:26:30.383Z,63.72
2022-11-27T06:28:59.196Z,63.20
2022-11-27T06:31:28.742Z,60.67
2022-11-27T06:33:56.250Z,57.28
2022-11-27T06:36:27.591Z,55.88
2022-11-27T06:38:54.293Z,59.22
2022-11-27T06:41:24.825Z,58.65
2022-11-27T06:43:51.949Z,58.80
2022-11-27T06:46:20.496Z,56.58
2022-11-27T06:48:49.706Z,52.63
2022-11-27T06:51:19.900Z,63.65
2022-11-27T06:53:48.285Z,59.53
2022-11-27T06:56:17.928Z,53.92
2022-11-27T06:58:45.361Z,50.15
2022-11-27T07:01:17.651Z,48.42
2022-11-27T07:03:44.531Z,49.47
2022-11-27T07:06:15.714Z,48.65
2022-11-27T07:08:42.798Z,48.70
2022-11-27T07:11:13.390Z,51.60
2022-11-27T07:13:40.639Z,52.15
2022-11-27T07:16:10.251Z,49.10
2022-11-27T07:18:40.402Z,49.47
2022-11-27T07:21:07.262Z,47.55
2022-11-27T07:23:33.985Z,51.50
2022-11-27T07:26:15.573Z,41.65
2022-11-27T07:28:45.700Z,46.83
2022-11-27T07:31:15.193Z,49.47
2022-11-27T07:33:42.142Z,49.28
2022-11-27T07:36:13.600Z,47.65
2022-11-27T07:38:40.316Z,50.90
2022-11-27T07:41:07.788Z,47.47
2022-11-27T07:43:35.474Z,52.78
2022-11-27T07:46:06.757Z,54.17
2022-11-27T07:48:34.066Z,64.77
2022-11-27T07:51:01.525Z,53.55
2022-11-27T07:53:28.232Z,53.78
2022-11-27T07:55:54.879Z,53.75
2022-11-27T07:58:21.574Z,49.65
2022-11-27T08:00:48.636Z,47.97
2022-11-27T08:03:16.560Z,43.03
2022-11-27T08:05:43.216Z,45.28
2022-11-27T08:08:10.765Z,45.15
2022-11-27T08:10:38.589Z,51.85
2022-11-27T08:13:05.932Z,49.53
2022-11-27T08:15:33.336Z,45.25
2022-11-27T08:18:00.398Z,46.03
2022-11-27T08:20:27.336Z,55.30
2022-11-27T08:22:58.123Z,56.17
2022-11-27T08:25:28.156Z,52.20
2022-11-27T08:27:54.817Z,47.15
2022-11-27T08:30:23.769Z,42.08
2022-11-27T08:32:50.728Z,46.15
2022-11-27T08:35:17.795Z,48.70
2022-11-27T08:37:44.664Z,51.28
2022-11-27T08:40:11.514Z,54.33
2022-11-27T08:42:38.176Z,56.20
2022-11-27T08:45:05.201Z,61.63
2022-11-27T08:47:32.701Z,55.67
2022-11-27T08:49:59.356Z,55.65
2022-11-27T08:52:26.495Z,53.60
2022-11-27T08:54:57.566Z,66.28
2022-11-27T08:57:24.961Z,57.28
2022-11-27T08:59:51.848Z,62.70
2022-11-27T09:02:18.456Z,54.15
2022-11-27T09:04:45.044Z,51.25
2022-11-27T09:07:14.415Z,61.33
2022-11-27T09:09:41.468Z,58.25
2022-11-27T09:12:08.463Z,57.40
2022-11-27T09:14:35.118Z,55.78
2022-11-27T09:17:02.129Z,64.53
2022-11-27T09:19:28.909Z,54.60
2022-11-27T09:21:56.361Z,59.53
2022-11-27T09:24:23.351Z,58.40
2022-11-27T09:26:50.690Z,56.53
2022-11-27T09:29:17.661Z,61.40
2022-11-27T09:31:44.450Z,58.53
2022-11-27T09:34:11.127Z,55.42
2022-11-27T09:36:37.782Z,55.33
2022-11-27T09:39:04.418Z,53.80
2022-11-27T09:41:51.638Z,49.13
2022-11-27T09:44:45.418Z,61.40
2022-11-27T09:47:27.365Z,53.53
2022-11-27T09:50:26.439Z,54.95
2022-11-27T09:53:36.260Z,55.72
2022-11-27T09:56:06.941Z,55.92
2022-11-27T09:58:41.256Z,58.08
2022-11-27T10:01:21.511Z,49.88
2022-11-27T10:03:48.615Z,56.22
2022-11-27T10:06:34.297Z,53.05
2022-11-27T10:09:06.863Z,53.97
2022-11-27T10:12:01.341Z,54.45
2022-11-27T10:14:28.071Z,50.95
2022-11-27T10:17:02.962Z,50.72
2022-11-27T10:19:46.720Z,57.58
2022-11-27T10:22:35.545Z,47.25
2022-11-27T10:25:20.544Z,47.78
2022-11-27T10:28:12.148Z,53.13
2022-11-27T10:30:50.341Z,49.13
2022-11-27T10:33:22.490Z,51.95
2022-11-27T10:38:27.028Z,49.72
2022-11-27T10:41:34.367Z,52.33
2022-11-27T10:44:05.014Z,42.75
2022-11-27T10:49:05.155Z,54.15
2022-11-27T10:51:36.159Z,49.45
2022-11-27T10:54:05.812Z,46.55
2022-11-27T10:56:40.063Z,48.92
2022-11-27T10:59:13.255Z,47.55
2022-11-27T11:01:49.340Z,46.40
2022-11-27T11:04:37.490Z,49.85
2022-11-27T11:07:24.408Z,46.45
2022-11-27T11:09:52.198Z,40.28
2022-11-27T11:12:21.339Z,38.70
2022-11-27T11:14:56.602Z,34.05
2022-11-27T11:17:28.742Z,39.33
2022-11-27T11:22:22.459Z,37.03
2022-11-27T11:24:53.648Z,38.53
2022-11-27T11:27:32.375Z,33.95
2022-11-27T11:30:02.239Z,42.97
2022-11-27T11:32:35.425Z,43.30
2022-11-27T11:35:10.744Z,39.65
2022-11-27T11:37:46.062Z,37.45
2022-11-27T11:40:16.740Z,33.00
2022-11-27T11:42:58.942Z,40.60
2022-11-27T11:45:32.317Z,36.58
2022-11-27T11:48:02.132Z,36.53
2022-11-27T11:50:41.350Z,45.33
2022-11-27T11:53:26.213Z,38.03
2022-11-27T11:56:12.182Z,39.33
2022-11-27T11:58:38.856Z,46.08
2022-11-27T12:01:27.845Z,43.08
2022-11-27T12:04:21.401Z,33.90
2022-11-27T12:07:15.320Z,35.10
2022-11-27T12:10:22.481Z,33.90
2022-11-27T12:13:30.379Z,37.60
2022-11-27T12:16:14.755Z,37.53
2022-11-27T12:19:05.968Z,36.60
2022-11-27T12:21:44.863Z,33.90
2022-11-27T12:24:19.757Z,39.88
2022-11-27T12:26:58.973Z,30.30
2022-11-27T12:29:59.524Z,26.08
2022-11-27T12:33:04.726Z,33.28
2022-11-27T12:35:38.086Z,30.33
2022-11-27T12:38:17.817Z,27.08
2022-11-27T12:41:06.416Z,35.05
2022-11-27T12:43:38.797Z,27.75
2022-11-27T12:48:43.830Z,32.03
2022-11-27T12:51:16.638Z,29.63
2022-11-27T12:53:49.440Z,26.23
2022-11-27T12:56:25.374Z,22.58
2022-11-27T12:59:02.009Z,23.52
2022-11-27T13:01:43.638Z,31.10
2022-11-27T13:04:32.381Z,23.90
2022-11-27T13:07:14.853Z,30.70
2022-11-27T13:12:31.582Z,28.88
2022-11-27T13:15:03.485Z,31.27
2022-11-27T13:17:39.557Z,25.25
2022-11-27T13:20:14.770Z,27.08
2022-11-27T13:22:43.388Z,22.73
2022-11-27T13:25:17.524Z,25.20
2022-11-27T13:27:49.390Z,26.92
2022-11-27T13:30:28.143Z,24.33
2022-11-27T13:33:01.871Z,26.73
2022-11-27T13:35:43.722Z,25.75
2022-11-27T13:38:15.040Z,26.10
2022-11-27T13:40:44.794Z,24.53
2022-11-27T13:43:22.324Z,17.63
2022-11-27T13:45:50.075Z,23.45
2022-11-27T13:48:39.190Z,24.38
2022-11-27T13:51:08.336Z,20.55
2022-11-27T13:53:38.996Z,25.52
2022-11-27T13:56:08.029Z,25.40
2022-11-27T13:58:40.854Z,30.33
2022-11-27T14:01:13.560Z,21.05
2022-11-27T14:03:40.442Z,20.10
2022-11-27T14:06:26.920Z,25.08
2022-11-27T14:09:00.842Z,21.65
2022-11-27T14:11:40.085Z,15.18
2022-11-27T14:14:25.344Z,19.48
2022-11-27T14:16:58.255Z,18.92
2022-11-27T14:19:34.525Z,16.20
2022-11-27T14:22:14.002Z,14.70
2022-11-27T14:24:44.307Z,16.65
2022-11-27T14:27:21.226Z,10.25
2022-11-27T14:29:51.385Z,16.25
2022-11-27T14:32:20.448Z,9.80
2022-11-27T14:34:50.894Z,9.13
2022-11-27T14:37:26.327Z,8.55
2022-11-27T14:39:53.681Z,14.27
2022-11-27T14:42:28.616Z,19.45
2022-11-27T14:45:07.565Z,14.48
2022-11-27T14:47:35.671Z,13.48
2022-11-27T14:50:04.117Z,16.25
2022-11-27T14:52:31.738Z,17.70
2022-11-27T14:55:00.539Z,14.98
2022-11-27T14:57:28.947Z,11.45
2022-11-27T15:00:04.805Z,14.07
2022-11-27T15:02:32.622Z,7.22
2022-11-27T15:05:05.738Z,10.80
2022-11-27T15:07:44.106Z,8.07
2022-11-27T15:10:37.053Z,10.40
2022-11-27T15:13:05.789Z,12.07
2022-11-27T15:15:39.688Z,18.90
2022-11-27T15:18:09.069Z,15.98
2022-11-27T15:20:43.166Z,11.13
2022-11-27T15:23:29.000Z,15.05
2022-11-27T15:26:15.872Z,13.52
2022-11-27T15:28:52.623Z,10.05
2022-11-27T15:31:30.372Z,14.10
2022-11-27T15:33:57.505Z,12.23
2022-11-27T15:36:24.650Z,17.80
2022-11-27T15:38:51.725Z,16.73
2022-11-27T15:41:27.124Z,8.20
2022-11-27T15:43:54.437Z,11.50
2022-11-27T15:46:27.717Z,13.40
2022-11-27T15:48:54.441Z,11.25
2022-11-27T15:51:21.207Z,12.60
2022-11-27T15:53:48.871Z,13.23
2022-11-27T15:56:16.217Z,14.70
2022-11-27T15:58:43.742Z,15.63
2022-11-27T16:01:11.339Z,21.25
2022-11-27T16:03:39.940Z,12.82
2022-11-27T16:06:08.484Z,10.55
2022-11-27T16:08:35.545Z,15.60
2022-11-27T16:11:07.541Z,9.95
2022-11-27T16:13:34.772Z,9.27
2022-11-27T16:16:06.524Z,14.52
2022-11-27T16:18:35.388Z,10.70
2022-11-27T16:21:03.817Z,15.13
2022-11-27T16:23:30.776Z,18.13
2022-11-27T16:25:57.784Z,12.68
2022-11-27T16:28:26.084Z,16.35
2022-11-27T16:30:57.302Z,13.15
2022-11-27T16:33:29.030Z,14.90
2022-11-27T16:35:56.416Z,21.25
2022-11-27T16:38:23.645Z,26.20
2022-11-27T16:40:50.632Z,24.52
2022-11-27T16:43:17.381Z,15.35
2022-11-27T16:45:44.267Z,14.70
2022-11-27T16:48:11.196Z,23.13
2022-11-27T16:50:37.943Z,16.83
2022-11-27T16:53:04.563Z,17.50
2022-11-27T16:55:32.042Z,12.82
2022-11-27T16:57:58.622Z,18.67
2022-11-27T17:00:25.203Z,15.82
2022-11-27T17:02:52.765Z,28.58
2022-11-27T17:05:19.577Z,18.00
2022-11-27T17:07:46.415Z,13.35
2022-11-27T17:10:14.169Z,8.05
2022-11-27T17:12:41.343Z,19.65
2022-11-27T17:15:08.525Z,9.73
2022-11-27T17:17:39.985Z,9.60
2022-11-27T17:20:07.650Z,11.35
2022-11-27T17:22:34.845Z,11.73
2022-11-27T17:25:01.579Z,11.75
2022-11-27T17:27:28.382Z,12.10
2022-11-27T17:29:55.011Z,16.60
2022-11-27T17:32:22.051Z,28.98
2022-11-27T17:34:48.832Z,12.20
2022-11-27T17:37:15.526Z,13.85
2022-11-27T17:39:43.846Z,9.45
2022-11-27T17:42:13.860Z,19.10
2022-11-27T17:44:41.955Z,17.17
2022-11-27T17:47:08.583Z,18.58
2022-11-27T17:49:36.162Z,20.50
2022-11-27T17:52:06.408Z,17.80
2022-11-27T17:54:34.305Z,23.15
2022-11-27T17:57:00.915Z,28.33
2022-11-27T17:59:27.713Z,25.08
2022-11-27T18:01:54.342Z,22.67
2022-11-27T18:04:21.339Z,15.75
2022-11-27T18:06:47.892Z,13.35
2022-11-27T18:09:14.713Z,12.60
2022-11-27T18:11:41.340Z,12.80
2022-11-27T18:14:08.111Z,11.52
2022-11-27T18:16:38.972Z,12.63
2022-11-27T18:19:09.711Z,16.65
2022-11-27T18:21:37.190Z,12.45
2022-11-27T18:27:10.187Z,10.13
2022-11-27T18:29:45.845Z,12.70
2022-11-27T18:32:14.731Z,14.02
2022-11-27T18:34:42.443Z,9.65
2022-11-27T18:37:10.020Z,10.38
2022-11-27T18:39:37.755Z,11.68
2022-11-27T18:42:05.926Z,12.57
2022-11-27T18:44:34.694Z,11.18
2022-11-27T18:47:07.256Z,12.73
2022-11-27T18:49:33.843Z,9.77
2022-11-27T18:52:00.557Z,13.77
2022-11-27T18:54:28.001Z,9.25
2022-11-27T18:56:55.235Z,9.65
2022-11-27T18:59:22.064Z,9.50
2022-11-27T19:01:48.709Z,11.88
2022-11-27T19:04:15.957Z,10.10
2022-11-27T19:06:43.292Z,10.48
2022-11-27T19:09:11.595Z,13.63
2022-11-27T19:11:38.942Z,11.63
2022-11-27T19:14:06.788Z,14.07
2022-11-27T19:16:46.763Z,13.00
2022-11-27T19:19:52.895Z,16.05
2022-11-27T19:22:03.012Z,12.68
2022-11-27T19:24:30.136Z,15.75
2022-11-27T19:26:57.979Z,13.50
2022-11-27T19:29:24.919Z,13.77
2022-11-27T19:31:52.265Z,14.70
2022-11-27T19:34:19.537Z,13.32
2022-11-27T19:36:46.988Z,13.93
2022-11-27T19:39:14.964Z,20.02
2022-11-27T19:41:43.428Z,12.70
2022-11-27T19:44:13.014Z,10.48
2022-11-27T19:46:41.461Z,13.02
2022-11-27T19:49:13.792Z,10.57
2022-11-27T19:51:41.327Z,11.85
2022-11-27T19:54:10.563Z,11.63
2022-11-27T19:56:40.099Z,10.82
2022-11-27T19:59:07.538Z,12.02
2022-11-27T20:01:34.402Z,9.68
2022-11-27T20:04:03.685Z,11.95
2022-11-27T20:06:30.802Z,10.65
2022-11-27T20:09:04.002Z,8.80
2022-11-27T20:11:34.794Z,9.45
2022-11-27T20:14:02.656Z,9.10
2022-11-27T20:16:29.496Z,8.65
2022-11-27T20:18:56.346Z,8.32
2022-11-27T20:21:25.796Z,10.23
2022-11-27T20:23:53.443Z,8.38
2022-11-27T20:26:24.122Z,9.00
2022-11-27T20:28:51.252Z,12.73
2022-11-27T20:31:26.275Z,12.00
2022-11-27T20:33:56.404Z,15.00
2022-11-27T20:36:24.737Z,15.27
2022-11-27T20:38:52.768Z,15.10
2022-11-27T20:41:21.278Z,19.90
2022-11-27T20:43:48.777Z,16.63
2022-11-27T20:46:17.113Z,14.70
2022-11-27T20:48:48.578Z,16.38
2022-11-27T20:51:18.622Z,16.60
2022-11-27T20:53:46.512Z,18.42
2022-11-27T20:56:15.559Z,14.63
2022-11-27T20:58:43.969Z,16.58
2022-11-27T21:01:32.400Z,19.77
2022-11-27T21:04:03.568Z,18.65
2022-11-27T21:06:32.286Z,19.40
2022-11-27T21:09:05.073Z,16.75
2022-11-27T21:11:32.343Z,14.73
2022-11-27T21:14:01.916Z,16.63
2022-11-27T21:16:33.070Z,16.73
2022-11-27T21:19:03.361Z,17.58
2022-11-27T21:21:31.297Z,23.08
2022-11-27T21:23:58.478Z,19.25
2022-11-27T21:26:26.174Z,16.35
2022-11-27T21:28:53.409Z,18.60
2022-11-27T21:31:23.234Z,16.92
2022-11-27T21:34:02.279Z,16.05
2022-11-27T21:36:34.173Z,14.35
2022-11-27T21:39:03.053Z,14.57
2022-11-27T21:41:31.610Z,14.05
2022-11-27T21:44:00.850Z,12.13
2022-11-27T21:46:28.104Z,15.82
2022-11-27T21:48:58.237Z,11.90
2022-11-27T21:51:26.500Z,16.13
2022-11-27T21:53:54.535Z,13.50
2022-11-27T21:56:23.932Z,14.13
2022-11-27T21:58:51.488Z,13.20
2022-11-27T22:01:22.068Z,11.68
2022-11-27T22:03:51.493Z,13.38
2022-11-27T22:06:19.270Z,16.58
2022-11-27T22:08:49.516Z,15.52
2022-11-27T22:11:19.740Z,15.02
2022-11-27T22:13:46.887Z,18.23
2022-11-27T22:16:19.790Z,16.33
2022-11-27T22:18:48.089Z,19.38
2022-11-27T22:21:16.066Z,17.45
2022-11-27T22:23:43.619Z,19.42
2022-11-27T22:26:13.399Z,17.50
2022-11-27T22:28:40.176Z,21.65
2022-11-27T22:31:14.812Z,19.52
2022-11-27T22:33:42.930Z,20.83
2022-11-27T22:36:16.646Z,20.05
2022-11-27T22:38:45.510Z,15.18
2022-11-27T22:41:14.057Z,12.63
2022-11-27T22:43:41.665Z,14.68
2022-11-27T22:46:21.054Z,12.38
2022-11-27T22:48:47.966Z,11.65
2022-11-27T22:51:14.884Z,13.95
2022-11-27T22:53:41.449Z,13.15
2022-11-27T22:56:11.895Z,13.43
2022-11-27T22:58:42.162Z,8.45
2022-11-27T23:01:29.201Z,8.30
2022-11-27T23:03:56.081Z,8.93
2022-11-27T23:06:23.942Z,8.68
2022-11-27T23:08:51.596Z,8.88
2022-11-27T23:11:24.041Z,7.60
2022-11-27T23:13:52.411Z,7.22
2022-11-27T23:16:20.263Z,10.10
2022-11-27T23:18:47.089Z,7.65
2022-11-27T23:21:21.076Z,10.30
2022-11-27T23:23:48.098Z,10.23
2022-11-27T23:26:18.493Z,9.13
2022-11-27T23:28:46.560Z,10.18
2022-11-27T23:31:30.052Z,16.10
2022-11-27T23:33:57.434Z,10.68
2022-11-27T23:36:24.180Z,13.48
2022-11-27T23:38:50.830Z,19.70
2022-11-27T23:41:23.368Z,18.25
2022-11-27T23:43:51.349Z,20.33
2022-11-27T23:46:20.414Z,18.83
2022-11-27T23:48:47.452Z,18.92
2022-11-27T23:51:18.330Z,18.40
2022-11-27T23:53:45.617Z,20.45
2022-11-27T23:56:18.200Z,19.38
2022-11-27T23:58:47.553Z,15.30
